Time,TemperatureF,DewpointF,PressureIn,WindDirection,WindDirectionDegrees,WindSpeedMPH,WindSpeedGustMPH,Humidity,HourlyPrecipIn,Conditions,Clouds,dailyrainin,SoftwareType,DateUTC
2013-01-06 00:00:00,31.6,30.1,30.06,SSW,212,8.0,13.0,94,0.00,,---,0.00,VWS V14.01,2013-01-06 05:00:00,
2013-01-06 00:02:00,31.6,30.1,30.05,SSW,195,5.0,6.0,94,0.00,,---,0.00,VWS V14.01,2013-01-06 05:02:00,
2013-01-06 00:03:00,31.6,30.1,30.05,SW,217,4.0,7.0,94,0.00,,---,0.00,VWS V14.01,2013-01-06 05:03:00,
2013-01-06 00:07:00,31.6,30.1,30.05,SSW,198,6.0,9.0,94,0.00,,---,0.00,VWS V14.01,2013-01-06 05:07:00,
2013-01-06 00:12:00,31.7,30.2,30.05,SSW,200,7.0,11.0,94,0.00,,---,0.00,VWS V14.01,2013-01-06 05:12:00,
2013-01-06 00:17:00,31.7,30.2,30.05,SW,228,8.0,11.0,94,0.00,,---,0.00,VWS V14.01,2013-01-06 05:17:00,
2013-01-06 00:23:00,31.8,30.3,30.05,SSW,197,13.0,15.0,94,0.00,,---,0.00,VWS V14.01,2013-01-06 05:23:00,
2013-01-06 00:28:00,32.0,30.5,30.04,SW,215,7.0,15.0,94,0.00,,---,0.00,VWS V14.01,2013-01-06 05:28:00,
2013-01-06 00:33:00,32.0,30.5,30.04,SSW,212,7.0,15.0,94,0.00,,---,0.00,VWS V14.01,2013-01-06 05:33:00,
2013-01-06 00:38:00,32.1,30.3,30.04,WSW,238,7.0,15.0,93,0.00,,---,0.00,VWS V14.01,2013-01-06 05:38:00,
2013-01-06 00:43:00,32.3,30.5,30.04,SSW,204,12.0,16.0,93,0.00,,---,0.00,VWS V14.01,2013-01-06 05:43:00,
2013-01-06 00:48:00,32.3,30.5,30.03,SSW,207,10.0,16.0,93,0.00,,---,0.00,VWS V14.01,2013-01-06 05:48:00,
2013-01-06 00:53:00,32.4,30.6,30.03,SW,214,8.0,16.0,93,0.00,,---,0.00,VWS V14.01,2013-01-06 05:53:00,
2013-01-06 00:58:00,32.5,30.7,30.03,SW,224,11.0,16.0,93,0.00,,---,0.00,VWS V14.01,2013-01-06 05:58:00,
2013-01-06 01:04:00,32.5,30.4,30.03,SSW,207,6.0,11.0,92,0.00,,---,0.00,VWS V14.01,2013-01-06 06:04:00,
2013-01-06 01:09:00,32.5,30.4,30.02,SW,224,10.0,13.0,92,0.00,,---,0.00,VWS V14.01,2013-01-06 06:09:00,
2013-01-06 01:14:00,32.7,30.6,30.02,WSW,238,7.0,13.0,92,0.00,,---,0.00,VWS V14.01,2013-01-06 06:14:00,
2013-01-06 01:19:00,32.7,30.6,30.02,SSW,204,12.0,14.0,92,0.00,,---,0.00,VWS V14.01,2013-01-06 06:19:00,
2013-01-06 01:24:00,32.8,30.7,30.02,SSW,207,8.0,15.0,92,0.00,,---,0.00,VWS V14.01,2013-01-06 06:24:00,
2013-01-06 01:29:00,32.9,30.6,30.02,SW,219,9.0,15.0,91,0.00,,---,0.00,VWS V14.01,2013-01-06 06:29:00,
2013-01-06 01:35:00,32.9,30.6,30.01,SSW,204,10.0,15.0,91,0.00,,---,0.00,VWS V14.01,2013-01-06 06:35:00,
2013-01-06 01:40:00,32.9,30.6,30.01,SW,214,8.0,15.0,91,0.00,,---,0.00,VWS V14.01,2013-01-06 06:40:00,
2013-01-06 01:45:00,32.9,30.6,30.01,SSW,201,5.0,15.0,91,0.00,,---,0.00,VWS V14.01,2013-01-06 06:45:00,
2013-01-06 01:50:00,33.0,30.7,30.01,SW,228,11.0,15.0,91,0.00,,---,0.00,VWS V14.01,2013-01-06 06:50:00,
2013-01-06 01:55:00,33.1,30.5,30.01,SW,214,8.0,15.0,90,0.00,,---,0.00,VWS V14.01,2013-01-06 06:55:00,
2013-01-06 02:00:00,33.1,30.5,30.01,SSW,204,7.0,15.0,90,0.00,,---,0.00,VWS V14.01,2013-01-06 07:00:00,
2013-01-06 02:05:00,33.2,30.6,30.00,SSW,193,12.0,12.0,90,0.00,,---,0.00,VWS V14.01,2013-01-06 07:05:00,
2013-01-06 02:10:00,33.3,30.4,30.00,SW,221,6.0,12.0,89,0.00,,---,0.00,VWS V14.01,2013-01-06 07:10:00,
2013-01-06 02:15:00,33.3,30.4,30.00,SW,221,7.0,12.0,89,0.00,,---,0.00,VWS V14.01,2013-01-06 07:15:00,
2013-01-06 02:21:00,33.3,30.4,30.00,SW,228,6.0,12.0,89,0.00,,---,0.00,VWS V14.01,2013-01-06 07:21:00,
2013-01-06 02:26:00,33.4,30.5,30.00,SSW,211,7.0,12.0,89,0.00,,---,0.00,VWS V14.01,2013-01-06 07:26:00,
2013-01-06 02:31:00,33.4,30.2,30.00,SW,221,7.0,13.0,88,0.00,,---,0.00,VWS V14.01,2013-01-06 07:31:00,
2013-01-06 02:36:00,33.5,30.3,30.00,SSW,203,8.0,13.0,88,0.00,,---,0.00,VWS V14.01,2013-01-06 07:36:00,
2013-01-06 02:41:00,33.4,30.2,30.00,SW,226,8.0,13.0,88,0.00,,---,0.00,VWS V14.01,2013-01-06 07:41:00,
2013-01-06 02:46:00,33.5,30.3,30.00,WSW,238,10.0,13.0,88,0.00,,---,0.00,VWS V14.01,2013-01-06 07:46:00,
2013-01-06 02:51:00,33.5,30.3,30.00,SW,225,8.0,13.0,88,0.00,,---,0.00,VWS V14.01,2013-01-06 07:51:00,
2013-01-06 02:56:00,33.6,30.4,30.00,SW,229,9.0,13.0,88,0.00,,---,0.00,VWS V14.01,2013-01-06 07:56:00,
2013-01-06 03:02:00,33.6,30.4,29.99,South,184,7.0,7.0,88,0.00,,---,0.00,VWS V14.01,2013-01-06 08:02:00,
2013-01-06 03:07:00,33.6,30.4,29.99,SW,219,7.0,12.0,88,0.00,,---,0.00,VWS V14.01,2013-01-06 08:07:00,
2013-01-06 03:12:00,33.6,30.4,29.99,SSW,211,6.0,12.0,88,0.00,,---,0.00,VWS V14.01,2013-01-06 08:12:00,
2013-01-06 03:17:00,33.6,30.4,29.99,SW,219,7.0,12.0,88,0.00,,---,0.00,VWS V14.01,2013-01-06 08:17:00,
2013-01-06 03:22:00,33.6,30.4,29.99,SW,224,10.0,12.0,88,0.00,,---,0.00,VWS V14.01,2013-01-06 08:22:00,
2013-01-06 03:27:00,33.6,30.4,29.99,SSW,207,6.0,15.0,88,0.00,,---,0.00,VWS V14.01,2013-01-06 08:27:00,
2013-01-06 03:32:00,33.6,30.4,29.99,SW,231,7.0,15.0,88,0.00,,---,0.00,VWS V14.01,2013-01-06 08:32:00,
2013-01-06 03:37:00,33.6,30.4,29.99,SW,220,8.0,15.0,88,0.00,,---,0.00,VWS V14.01,2013-01-06 08:37:00,
2013-01-06 03:42:00,33.6,30.4,29.99,SSW,208,7.0,15.0,88,0.00,,---,0.00,VWS V14.01,2013-01-06 08:42:00,
2013-01-06 03:48:00,33.6,30.4,29.99,SW,233,8.0,15.0,88,0.00,,---,0.00,VWS V14.01,2013-01-06 08:48:00,
2013-01-06 03:53:00,33.6,30.4,29.99,SSW,212,7.0,15.0,88,0.00,,---,0.00,VWS V14.01,2013-01-06 08:53:00,
2013-01-06 03:58:00,33.7,30.5,29.98,WSW,250,6.0,15.0,88,0.00,,---,0.00,VWS V14.01,2013-01-06 08:58:00,
2013-01-06 04:03:00,33.7,30.5,29.98,SW,232,8.0,10.0,88,0.00,,---,0.00,VWS V14.01,2013-01-06 09:03:00,
2013-01-06 04:08:00,33.7,30.5,29.98,SW,229,9.0,13.0,88,0.00,,---,0.00,VWS V14.01,2013-01-06 09:08:00,
2013-01-06 04:13:00,33.7,30.5,29.98,SW,221,8.0,13.0,88,0.00,,---,0.00,VWS V14.01,2013-01-06 09:13:00,
2013-01-06 04:18:00,33.7,30.5,29.98,WSW,248,9.0,17.0,88,0.00,,---,0.00,VWS V14.01,2013-01-06 09:18:00,
2013-01-06 04:24:00,33.7,30.5,29.97,SW,219,13.0,17.0,88,0.00,,---,0.00,VWS V14.01,2013-01-06 09:24:00,
2013-01-06 04:29:00,33.7,30.5,29.97,SW,227,8.0,17.0,88,0.00,,---,0.00,VWS V14.01,2013-01-06 09:29:00,
2013-01-06 04:34:00,32.8,29.6,29.96,SW,216,9.0,17.0,88,0.00,,---,0.00,VWS V14.01,2013-01-06 09:34:00,
2013-01-06 04:39:00,32.9,29.7,29.96,SSW,200,10.0,17.0,88,0.00,,---,0.00,VWS V14.01,2013-01-06 09:39:00,
2013-01-06 04:44:00,32.9,29.7,29.96,SSW,200,10.0,17.0,88,0.00,,---,0.00,VWS V14.01,2013-01-06 09:44:00,
2013-01-06 04:49:00,32.9,29.7,29.96,SSW,200,10.0,17.0,88,0.00,,---,0.00,VWS V14.01,2013-01-06 09:49:00,
2013-01-06 04:54:00,32.9,29.7,29.95,SSW,200,10.0,17.0,88,0.00,,---,0.00,VWS V14.01,2013-01-06 09:54:00,
2013-01-06 04:59:00,32.9,29.7,29.95,SSW,200,10.0,17.0,88,0.00,,---,0.00,VWS V14.01,2013-01-06 09:59:00,
2013-01-06 05:05:00,32.9,29.7,29.95,SSW,200,10.0,10.0,88,0.00,,---,0.00,VWS V14.01,2013-01-06 10:05:00,
2013-01-06 05:10:00,32.9,29.7,29.95,SSW,200,10.0,10.0,88,0.00,,---,0.00,VWS V14.01,2013-01-06 10:10:00,
2013-01-06 05:15:00,32.9,29.7,29.94,SSW,200,10.0,10.0,88,0.00,,---,0.00,VWS V14.01,2013-01-06 10:15:00,
2013-01-06 05:20:00,32.9,29.7,29.94,SSW,200,10.0,10.0,88,0.00,,---,0.00,VWS V14.01,2013-01-06 10:20:00,
2013-01-06 05:25:00,32.9,29.7,29.94,SSW,200,10.0,10.0,88,0.00,,---,0.00,VWS V14.01,2013-01-06 10:25:00,
2013-01-06 05:30:00,33.5,30.9,29.95,SW,215,5.0,13.0,90,0.00,,---,0.00,VWS V14.01,2013-01-06 10:30:00,
2013-01-06 05:35:00,33.5,30.9,29.94,SW,229,7.0,13.0,90,0.00,,---,0.00,VWS V14.01,2013-01-06 10:35:00,
2013-01-06 05:41:00,33.5,30.9,29.94,SW,220,11.0,13.0,90,0.00,,---,0.00,VWS V14.01,2013-01-06 10:41:00,
2013-01-06 05:46:00,33.5,30.9,29.94,SW,224,7.0,13.0,90,0.00,,---,0.00,VWS V14.01,2013-01-06 10:46:00,
2013-01-06 05:51:00,33.5,30.9,29.94,SW,218,5.0,13.0,90,0.00,,---,0.00,VWS V14.01,2013-01-06 10:51:00,
2013-01-06 05:56:00,33.4,30.8,29.94,SW,214,6.0,13.0,90,0.00,,---,0.00,VWS V14.01,2013-01-06 10:56:00,
2013-01-06 06:01:00,33.3,30.7,29.94,SW,219,6.0,13.0,90,0.00,,---,0.00,VWS V14.01,2013-01-06 11:01:00,
2013-01-06 06:06:00,33.2,30.9,29.94,SW,223,5.0,10.0,91,0.00,,---,0.00,VWS V14.01,2013-01-06 11:06:00,
2013-01-06 06:11:00,33.2,30.9,29.94,SSW,200,10.0,10.0,91,0.00,,---,0.00,VWS V14.01,2013-01-06 11:11:00,
2013-01-06 06:16:00,33.2,30.9,29.94,SSW,210,8.0,10.0,91,0.00,,---,0.00,VWS V14.01,2013-01-06 11:16:00,
2013-01-06 06:21:00,33.1,30.8,29.94,SSW,197,7.0,10.0,91,0.00,,---,0.00,VWS V14.01,2013-01-06 11:21:00,
2013-01-06 06:26:00,33.1,30.8,29.94,SW,222,6.0,11.0,91,0.00,,---,0.00,VWS V14.01,2013-01-06 11:26:00,
2013-01-06 06:32:00,33.1,30.8,29.94,SSW,207,5.0,11.0,91,0.00,,---,0.00,VWS V14.01,2013-01-06 11:32:00,
2013-01-06 06:37:00,33.1,30.8,29.94,SSW,210,5.0,11.0,91,0.00,,---,0.00,VWS V14.01,2013-01-06 11:37:00,
2013-01-06 06:42:00,33.0,30.7,29.94,SSW,204,5.0,11.0,91,0.00,,---,0.00,VWS V14.01,2013-01-06 11:42:00,
2013-01-06 06:47:00,33.1,30.8,29.94,South,190,8.0,11.0,91,0.00,,---,0.00,VWS V14.01,2013-01-06 11:47:00,
2013-01-06 06:52:00,33.1,30.8,29.94,SSW,200,6.0,11.0,91,0.00,,---,0.00,VWS V14.01,2013-01-06 11:52:00,
2013-01-06 06:57:00,33.1,30.8,29.93,SSW,205,5.0,11.0,91,0.00,,---,0.00,VWS V14.01,2013-01-06 11:57:00,
2013-01-06 07:02:00,33.1,30.8,29.93,South,188,8.0,11.0,91,0.00,,---,0.00,VWS V14.01,2013-01-06 12:02:00,
2013-01-06 07:07:00,33.1,30.8,29.93,SW,215,5.0,12.0,91,0.00,,---,0.00,VWS V14.01,2013-01-06 12:07:00,
2013-01-06 07:12:00,33.2,30.9,29.93,SW,214,5.0,12.0,91,0.00,,---,0.00,VWS V14.01,2013-01-06 12:12:00,
2013-01-06 07:17:00,33.2,30.9,29.93,SSW,200,8.0,12.0,91,0.00,,---,0.00,VWS V14.01,2013-01-06 12:17:00,
2013-01-06 07:23:00,33.3,31.0,29.93,SW,231,6.0,12.0,91,0.00,,---,0.00,VWS V14.01,2013-01-06 12:23:00,
2013-01-06 07:28:00,33.3,31.0,29.93,SSW,203,6.0,12.0,91,0.00,,---,0.00,VWS V14.01,2013-01-06 12:28:00,
2013-01-06 07:33:00,33.3,31.0,29.93,SSW,198,9.0,12.0,91,0.00,,---,0.00,VWS V14.01,2013-01-06 12:33:00,
2013-01-06 07:38:00,33.3,31.0,29.93,SSW,209,4.0,12.0,91,0.00,,---,0.00,VWS V14.01,2013-01-06 12:38:00,
2013-01-06 07:43:00,33.3,31.0,29.93,South,186,8.0,12.0,91,0.00,,---,0.00,VWS V14.01,2013-01-06 12:43:00,
2013-01-06 07:48:00,33.4,31.1,29.93,SSW,204,6.0,12.0,91,0.00,,---,0.00,VWS V14.01,2013-01-06 12:48:00,
2013-01-06 07:53:00,33.4,31.1,29.93,SW,214,7.0,12.0,91,0.00,,---,0.00,VWS V14.01,2013-01-06 12:53:00,
2013-01-06 07:58:00,33.4,31.1,29.93,SSW,208,9.0,12.0,91,0.00,,---,0.00,VWS V14.01,2013-01-06 12:58:00,
2013-01-06 08:04:00,33.4,31.1,29.93,SSW,212,7.0,11.0,91,0.00,,---,0.00,VWS V14.01,2013-01-06 13:04:00,
2013-01-06 08:09:00,33.4,31.1,29.93,SSW,207,5.0,11.0,91,0.00,,---,0.00,VWS V14.01,2013-01-06 13:09:00,
2013-01-06 08:14:00,33.5,31.2,29.93,South,181,7.0,11.0,91,0.00,,---,0.00,VWS V14.01,2013-01-06 13:14:00,
2013-01-06 08:19:00,33.5,31.2,29.93,SSW,195,8.0,11.0,91,0.00,,---,0.00,VWS V14.01,2013-01-06 13:19:00,
2013-01-06 08:24:00,33.5,31.2,29.93,SSW,212,8.0,11.0,91,0.00,,---,0.00,VWS V14.01,2013-01-06 13:24:00,
2013-01-06 08:29:00,33.5,31.2,29.93,SSW,207,5.0,11.0,91,0.00,,---,0.00,VWS V14.01,2013-01-06 13:29:00,
2013-01-06 08:34:00,33.5,31.2,29.93,SSW,200,6.0,11.0,91,0.00,,---,0.00,VWS V14.01,2013-01-06 13:34:00,
2013-01-06 08:39:00,33.5,31.2,29.93,SSW,208,6.0,11.0,91,0.00,,---,0.00,VWS V14.01,2013-01-06 13:39:00,
2013-01-06 08:45:00,33.6,31.3,29.93,SSW,203,9.0,11.0,91,0.00,,---,0.00,VWS V14.01,2013-01-06 13:45:00,
2013-01-06 08:50:00,33.7,31.4,29.93,SSW,204,5.0,11.0,91,0.00,,---,0.00,VWS V14.01,2013-01-06 13:50:00,
2013-01-06 08:55:00,33.7,31.4,29.93,SSW,195,6.0,11.0,91,0.00,,---,0.00,VWS V14.01,2013-01-06 13:55:00,
2013-01-06 09:00:00,33.8,31.5,29.93,SW,226,10.0,11.0,91,0.00,,---,0.00,VWS V14.01,2013-01-06 14:00:00,
2013-01-06 09:05:00,33.8,31.2,29.93,SSW,204,5.0,12.0,90,0.00,,---,0.00,VWS V14.01,2013-01-06 14:05:00,
2013-01-06 09:10:00,33.9,31.3,29.93,SSW,210,4.0,12.0,90,0.00,,---,0.00,VWS V14.01,2013-01-06 14:10:00,
2013-01-06 09:15:00,33.9,31.3,29.93,SW,229,8.0,12.0,90,0.00,,---,0.00,VWS V14.01,2013-01-06 14:15:00,
2013-01-06 09:21:00,33.9,31.3,29.93,SSW,193,7.0,12.0,90,0.00,,---,0.00,VWS V14.01,2013-01-06 14:21:00,
2013-01-06 09:26:00,34.0,31.4,29.94,SW,219,7.0,12.0,90,0.00,,---,0.00,VWS V14.01,2013-01-06 14:26:00,
2013-01-06 09:31:00,34.0,31.4,29.93,SSW,205,5.0,12.0,90,0.00,,---,0.00,VWS V14.01,2013-01-06 14:31:00,
2013-01-06 09:36:00,34.1,31.5,29.94,SW,214,7.0,12.0,90,0.00,,---,0.00,VWS V14.01,2013-01-06 14:36:00,
2013-01-06 09:41:00,34.1,31.5,29.94,SSW,205,4.0,12.0,90,0.00,,---,0.00,VWS V14.01,2013-01-06 14:41:00,
2013-01-06 09:46:00,34.1,31.5,29.94,SW,214,5.0,12.0,90,0.00,,---,0.00,VWS V14.01,2013-01-06 14:46:00,
2013-01-06 09:51:00,34.1,31.5,29.94,SSW,208,6.0,12.0,90,0.00,,---,0.00,VWS V14.01,2013-01-06 14:51:00,
2013-01-06 09:56:00,34.1,31.5,29.94,SSW,207,5.0,12.0,90,0.00,,---,0.00,VWS V14.01,2013-01-06 14:56:00,
2013-01-06 10:02:00,34.1,31.5,29.94,SSW,204,7.0,8.0,90,0.00,,---,0.00,VWS V14.01,2013-01-06 15:02:00,
2013-01-06 10:07:00,34.1,31.5,29.94,SW,219,8.0,9.0,90,0.00,,---,0.00,VWS V14.01,2013-01-06 15:07:00,
2013-01-06 10:12:00,34.1,31.5,29.94,SW,223,6.0,9.0,90,0.00,,---,0.00,VWS V14.01,2013-01-06 15:12:00,
2013-01-06 10:17:00,34.1,31.5,29.94,SW,219,4.0,10.0,90,0.00,,---,0.00,VWS V14.01,2013-01-06 15:17:00,
2013-01-06 10:22:00,34.1,31.5,29.94,SW,229,8.0,10.0,90,0.00,,---,0.00,VWS V14.01,2013-01-06 15:22:00,
2013-01-06 10:27:00,34.1,31.5,29.94,SW,229,6.0,10.0,90,0.00,,---,0.00,VWS V14.01,2013-01-06 15:27:00,
2013-01-06 10:33:00,34.1,31.5,29.94,SSW,201,5.0,10.0,90,0.00,,---,0.00,VWS V14.01,2013-01-06 15:33:00,
2013-01-06 10:38:00,34.2,31.6,29.95,SW,221,5.0,10.0,90,0.00,,---,0.00,VWS V14.01,2013-01-06 15:38:00,
2013-01-06 10:43:00,34.2,31.6,29.94,SW,221,6.0,10.0,90,0.00,,---,0.00,VWS V14.01,2013-01-06 15:43:00,
2013-01-06 10:48:00,34.2,31.6,29.94,SSW,205,8.0,10.0,90,0.00,,---,0.00,VWS V14.01,2013-01-06 15:48:00,
2013-01-06 10:53:00,34.3,31.7,29.94,SSW,207,8.0,10.0,90,0.00,,---,0.00,VWS V14.01,2013-01-06 15:53:00,
2013-01-06 10:58:00,34.4,31.8,29.94,SW,218,6.0,10.0,90,0.00,,---,0.00,VWS V14.01,2013-01-06 15:58:00,
2013-01-06 11:03:00,34.4,31.5,29.94,SSW,200,7.0,10.0,89,0.00,,---,0.00,VWS V14.01,2013-01-06 16:03:00,
2013-01-06 11:08:00,34.5,31.6,29.94,SW,226,6.0,10.0,89,0.00,,---,0.00,VWS V14.01,2013-01-06 16:08:00,
2013-01-06 11:14:00,34.5,31.6,29.94,SW,221,5.0,10.0,89,0.00,,---,0.00,VWS V14.01,2013-01-06 16:14:00,
2013-01-06 11:19:00,34.6,31.7,29.94,SW,229,6.0,10.0,89,0.00,,---,0.00,VWS V14.01,2013-01-06 16:19:00,
2013-01-06 11:24:00,34.7,31.8,29.94,SW,226,4.0,10.0,89,0.00,,---,0.00,VWS V14.01,2013-01-06 16:24:00,
2013-01-06 11:29:00,34.6,31.7,29.94,WSW,240,7.0,10.0,89,0.00,,---,0.00,VWS V14.01,2013-01-06 16:29:00,
2013-01-06 11:34:00,34.5,31.9,29.94,SSW,210,5.0,12.0,90,0.00,,---,0.00,VWS V14.01,2013-01-06 16:34:00,
2013-01-06 11:39:00,34.4,32.0,29.94,SW,233,4.0,12.0,91,0.00,,---,0.00,VWS V14.01,2013-01-06 16:39:00,
2013-01-06 11:44:00,34.3,32.2,29.93,WSW,238,7.0,12.0,92,0.00,,---,0.00,VWS V14.01,2013-01-06 16:44:00,
2013-01-06 11:49:00,34.3,32.2,29.93,WSW,248,7.0,12.0,92,0.00,,---,0.00,VWS V14.01,2013-01-06 16:49:00,
2013-01-06 11:55:00,34.3,32.2,29.93,WSW,252,7.0,12.0,92,0.00,,---,0.00,VWS V14.01,2013-01-06 16:55:00,
2013-01-06 12:00:00,34.4,32.3,29.93,SW,225,7.0,12.0,92,0.00,,---,0.00,VWS V14.01,2013-01-06 17:00:00,
2013-01-06 12:05:00,34.5,32.2,29.93,WSW,243,4.0,10.0,91,0.00,,---,0.00,VWS V14.01,2013-01-06 17:05:00,
2013-01-06 12:10:00,34.7,32.1,29.93,WSW,249,7.0,10.0,90,0.00,,---,0.00,VWS V14.01,2013-01-06 17:10:00,
2013-01-06 12:15:00,34.7,32.1,29.93,WSW,249,6.0,11.0,90,0.00,,---,0.00,VWS V14.01,2013-01-06 17:15:00,
2013-01-06 12:20:00,34.7,32.1,29.93,WSW,250,9.0,11.0,90,0.00,,---,0.00,VWS V14.01,2013-01-06 17:20:00,
2013-01-06 12:25:00,34.6,32.0,29.93,SW,236,10.0,14.0,90,0.00,,---,0.00,VWS V14.01,2013-01-06 17:25:00,
2013-01-06 12:31:00,34.5,31.9,29.93,WSW,250,7.0,14.0,90,0.00,,---,0.00,VWS V14.01,2013-01-06 17:31:00,
2013-01-06 12:36:00,34.4,32.0,29.93,WSW,239,7.0,14.0,91,0.00,,---,0.00,VWS V14.01,2013-01-06 17:36:00,
2013-01-06 12:41:00,34.3,32.0,29.93,WSW,242,6.0,14.0,91,0.00,,---,0.00,VWS V14.01,2013-01-06 17:41:00,
2013-01-06 12:46:00,34.1,32.0,29.93,WSW,238,4.0,14.0,92,0.00,,---,0.00,VWS V14.01,2013-01-06 17:46:00,
2013-01-06 12:51:00,34.1,32.0,29.93,WSW,239,6.0,14.0,92,0.00,,---,0.00,VWS V14.01,2013-01-06 17:51:00,
2013-01-06 12:56:00,34.1,32.0,29.93,WSW,249,5.0,14.0,92,0.00,,---,0.00,VWS V14.01,2013-01-06 17:56:00,
2013-01-06 13:02:00,34.2,32.1,29.93,WSW,252,6.0,8.0,92,0.00,,---,0.00,VWS V14.01,2013-01-06 18:02:00,
2013-01-06 13:07:00,34.3,32.2,29.93,WSW,239,5.0,11.0,92,0.00,,---,0.00,VWS V14.01,2013-01-06 18:07:00,
2013-01-06 13:12:00,34.4,32.0,29.93,SW,222,8.0,12.0,91,0.00,,---,0.00,VWS V14.01,2013-01-06 18:12:00,
2013-01-06 13:17:00,34.5,32.2,29.93,SW,218,4.0,12.0,91,0.00,,---,0.00,VWS V14.01,2013-01-06 18:17:00,
2013-01-06 13:22:00,34.5,31.9,29.93,WSW,257,7.0,12.0,90,0.00,,---,0.00,VWS V14.01,2013-01-06 18:22:00,
2013-01-06 13:27:00,34.5,31.9,29.93,WSW,250,6.0,12.0,90,0.00,,---,0.00,VWS V14.01,2013-01-06 18:27:00,
2013-01-06 13:32:00,34.5,31.9,29.93,West,262,6.0,14.0,90,0.00,,---,0.00,VWS V14.01,2013-01-06 18:32:00,
2013-01-06 13:37:00,34.3,32.0,29.93,WSW,255,4.0,14.0,91,0.00,,---,0.00,VWS V14.01,2013-01-06 18:37:00,
2013-01-06 13:42:00,34.1,31.8,29.93,WSW,246,4.0,14.0,91,0.00,,---,0.00,VWS V14.01,2013-01-06 18:42:00,
2013-01-06 13:47:00,34.2,31.9,29.93,West,263,5.0,14.0,91,0.00,,---,0.00,VWS V14.01,2013-01-06 18:47:00,
2013-01-06 13:53:00,34.2,31.6,29.93,West,262,4.0,14.0,90,0.00,,---,0.00,VWS V14.01,2013-01-06 18:53:00,
2013-01-06 13:58:00,34.2,31.6,29.94,WSW,238,9.0,14.0,90,0.00,,---,0.00,VWS V14.01,2013-01-06 18:58:00,
2013-01-06 14:03:00,34.2,31.6,29.94,West,263,10.0,10.0,90,0.00,,---,0.00,VWS V14.01,2013-01-06 19:03:00,
2013-01-06 14:08:00,34.1,31.5,29.94,West,281,4.0,12.0,90,0.00,,---,0.00,VWS V14.01,2013-01-06 19:08:00,
2013-01-06 14:13:00,34.0,31.6,29.94,WNW,290,2.0,12.0,91,0.00,,---,0.00,VWS V14.01,2013-01-06 19:13:00,
2013-01-06 14:18:00,33.9,31.3,29.95,NW,307,7.0,14.0,90,0.01,,---,0.01,VWS V14.01,2013-01-06 19:18:00,
2013-01-06 14:23:00,33.7,31.1,29.95,WNW,301,4.0,14.0,90,0.01,,---,0.01,VWS V14.01,2013-01-06 19:23:00,
2013-01-06 14:28:00,33.6,31.0,29.95,NW,304,8.0,14.0,90,0.01,,---,0.01,VWS V14.01,2013-01-06 19:28:00,
2013-01-06 14:33:00,33.5,30.9,29.95,NW,304,5.0,15.0,90,0.01,,---,0.01,VWS V14.01,2013-01-06 19:33:00,
2013-01-06 14:38:00,33.4,30.8,29.96,WNW,300,5.0,16.0,90,0.01,,---,0.01,VWS V14.01,2013-01-06 19:38:00,
2013-01-06 14:44:00,33.3,31.0,29.96,West,277,8.0,16.0,91,0.01,,---,0.01,VWS V14.01,2013-01-06 19:44:00,
2013-01-06 14:49:00,33.2,30.9,29.97,WNW,288,5.0,16.0,91,0.01,,---,0.01,VWS V14.01,2013-01-06 19:49:00,
2013-01-06 14:54:00,33.0,30.7,29.97,WNW,293,8.0,16.0,91,0.01,,---,0.01,VWS V14.01,2013-01-06 19:54:00,
2013-01-06 14:59:00,32.8,30.5,29.97,NW,308,5.0,16.0,91,0.01,,---,0.01,VWS V14.01,2013-01-06 19:59:00,
2013-01-06 15:04:00,32.7,30.1,29.98,WNW,301,7.0,14.0,90,0.01,,---,0.01,VWS V14.01,2013-01-06 20:04:00,
2013-01-06 15:09:00,32.6,30.0,29.98,West,281,6.0,14.0,90,0.01,,---,0.01,VWS V14.01,2013-01-06 20:09:00,
2013-01-06 15:11:00,32.5,29.9,29.98,West,270,5.0,14.0,90,0.01,,---,0.01,VWS V14.01,2013-01-06 20:11:00,
2013-01-06 15:13:00,32.5,29.9,29.98,WNW,286,8.0,14.0,90,0.01,,---,0.01,VWS V14.01,2013-01-06 20:13:00,
2013-01-06 15:18:00,32.4,29.8,29.99,WSW,258,2.0,14.0,90,0.01,,---,0.01,VWS V14.01,2013-01-06 20:18:00,
2013-01-06 15:23:00,32.3,29.7,29.99,WSW,255,2.0,14.0,90,0.01,,---,0.01,VWS V14.01,2013-01-06 20:23:00,
2013-01-06 15:28:00,32.2,29.6,30.00,West,281,5.0,16.0,90,0.01,,---,0.01,VWS V14.01,2013-01-06 20:28:00,
2013-01-06 15:33:00,32.1,29.5,30.00,West,276,4.0,16.0,90,0.01,,---,0.01,VWS V14.01,2013-01-06 20:33:00,
2013-01-06 15:38:00,32.0,29.4,30.00,West,262,7.0,16.0,90,0.01,,---,0.01,VWS V14.01,2013-01-06 20:38:00,
2013-01-06 15:44:00,32.0,29.4,30.00,WNW,282,6.0,16.0,90,0.01,,---,0.01,VWS V14.01,2013-01-06 20:44:00,
2013-01-06 15:49:00,31.9,29.3,30.01,West,273,5.0,16.0,90,0.01,,---,0.01,VWS V14.01,2013-01-06 20:49:00,
2013-01-06 15:54:00,31.8,29.2,30.01,West,264,6.0,16.0,90,0.01,,---,0.01,VWS V14.01,2013-01-06 20:54:00,
2013-01-06 15:59:00,31.8,29.2,30.01,West,269,4.0,16.0,90,0.01,,---,0.01,VWS V14.01,2013-01-06 20:59:00,
2013-01-06 16:00:00,31.9,29.3,30.02,WNW,298,2.0,16.0,90,0.01,,---,0.01,VWS V14.01,2013-01-06 21:00:00,
2013-01-06 16:05:00,32.0,29.1,30.02,WNW,285,3.0,7.0,89,0.00,,---,0.01,VWS V14.01,2013-01-06 21:05:00,
2013-01-06 16:10:00,32.0,29.1,30.02,WNW,291,4.0,7.0,89,0.00,,---,0.01,VWS V14.01,2013-01-06 21:10:00,
2013-01-06 16:16:00,32.1,29.0,30.02,NW,326,4.0,9.0,88,0.00,,---,0.01,VWS V14.01,2013-01-06 21:16:00,
2013-01-06 16:21:00,32.1,29.0,30.03,WNW,285,9.0,9.0,88,0.00,,---,0.01,VWS V14.01,2013-01-06 21:21:00,
2013-01-06 16:26:00,32.1,28.7,30.03,WNW,293,4.0,9.0,87,0.00,,---,0.01,VWS V14.01,2013-01-06 21:26:00,
2013-01-06 16:31:00,32.2,28.5,30.04,WNW,283,1.0,9.0,86,0.00,,---,0.01,VWS V14.01,2013-01-06 21:31:00,
2013-01-06 16:36:00,32.1,28.4,30.04,West,269,7.0,9.0,86,0.00,,---,0.01,VWS V14.01,2013-01-06 21:36:00,
2013-01-06 16:41:00,32.2,28.2,30.05,WNW,297,6.0,9.0,85,0.00,,---,0.01,VWS V14.01,2013-01-06 21:41:00,
2013-01-06 16:46:00,32.3,28.0,30.05,WNW,285,3.0,10.0,84,0.00,,---,0.01,VWS V14.01,2013-01-06 21:46:00,
2013-01-06 16:52:00,32.3,27.7,30.05,WNW,285,7.0,11.0,83,0.00,,---,0.01,VWS V14.01,2013-01-06 21:52:00,
2013-01-06 16:57:00,32.3,27.7,30.06,NW,314,2.0,11.0,83,0.00,,---,0.01,VWS V14.01,2013-01-06 21:57:00,
2013-01-06 17:02:00,32.3,27.4,30.06,WNW,300,2.0,6.0,82,0.00,,---,0.01,VWS V14.01,2013-01-06 22:02:00,
2013-01-06 17:07:00,32.3,27.4,30.06,WNW,298,6.0,8.0,82,0.00,,---,0.01,VWS V14.01,2013-01-06 22:07:00,
2013-01-06 17:12:00,32.3,27.1,30.07,WNW,298,7.0,8.0,81,0.00,,---,0.01,VWS V14.01,2013-01-06 22:12:00,
2013-01-06 17:17:00,32.3,27.1,30.07,West,277,2.0,8.0,81,0.00,,---,0.01,VWS V14.01,2013-01-06 22:17:00,
2013-01-06 17:23:00,32.2,27.0,30.07,WNW,291,8.0,8.0,81,0.00,,---,0.01,VWS V14.01,2013-01-06 22:23:00,
2013-01-06 17:28:00,32.2,27.0,30.07,NW,310,6.0,10.0,81,0.00,,---,0.01,VWS V14.01,2013-01-06 22:28:00,
2013-01-06 17:33:00,32.2,27.0,30.08,NW,314,5.0,12.0,81,0.00,,---,0.01,VWS V14.01,2013-01-06 22:33:00,
2013-01-06 17:38:00,32.2,27.0,30.08,WNW,294,4.0,12.0,81,0.00,,---,0.01,VWS V14.01,2013-01-06 22:38:00,
2013-01-06 17:43:00,32.2,27.0,30.08,NW,322,5.0,12.0,81,0.00,,---,0.01,VWS V14.01,2013-01-06 22:43:00,
2013-01-06 17:48:00,32.2,27.0,30.09,WNW,283,6.0,12.0,81,0.00,,---,0.01,VWS V14.01,2013-01-06 22:48:00,
2013-01-06 17:53:00,32.2,27.3,30.09,NW,314,5.0,12.0,82,0.00,,---,0.01,VWS V14.01,2013-01-06 22:53:00,
2013-01-06 17:59:00,32.1,27.2,30.09,NW,312,5.0,12.0,82,0.00,,---,0.01,VWS V14.01,2013-01-06 22:59:00,
2013-01-06 18:04:00,32.1,27.2,30.10,NW,308,4.0,9.0,82,0.00,,---,0.01,VWS V14.01,2013-01-06 23:04:00,
2013-01-06 18:09:00,32.1,27.2,30.10,NW,304,3.0,11.0,82,0.00,,---,0.01,VWS V14.01,2013-01-06 23:09:00,
2013-01-06 18:14:00,32.1,27.2,30.10,WNW,302,8.0,11.0,82,0.00,,---,0.01,VWS V14.01,2013-01-06 23:14:00,
2013-01-06 18:19:00,32.1,27.5,30.11,NW,316,3.0,11.0,83,0.00,,---,0.01,VWS V14.01,2013-01-06 23:19:00,
2013-01-06 18:24:00,32.0,27.4,30.11,WNW,294,4.0,11.0,83,0.00,,---,0.01,VWS V14.01,2013-01-06 23:24:00,
2013-01-06 18:29:00,32.0,27.4,30.12,NW,304,4.0,11.0,83,0.00,,---,0.01,VWS V14.01,2013-01-06 23:29:00,
2013-01-06 18:34:00,31.9,27.3,30.12,WNW,297,5.0,11.0,83,0.00,,---,0.01,VWS V14.01,2013-01-06 23:34:00,
2013-01-06 18:40:00,31.9,27.6,30.13,WNW,288,3.0,11.0,84,0.00,,---,0.01,VWS V14.01,2013-01-06 23:40:00,
2013-01-06 18:45:00,32.0,27.4,30.13,WNW,300,4.0,11.0,83,0.00,,---,0.01,VWS V14.01,2013-01-06 23:45:00,
2013-01-06 18:50:00,32.0,27.4,30.14,NW,312,7.0,11.0,83,0.00,,---,0.01,VWS V14.01,2013-01-06 23:50:00,
2013-01-06 18:55:00,32.0,27.4,30.14,WNW,288,5.0,12.0,83,0.00,,---,0.01,VWS V14.01,2013-01-06 23:55:00,
2013-01-06 19:00:00,32.0,27.4,30.15,NW,312,3.0,12.0,83,0.00,,---,0.01,VWS V14.01,2013-01-07 00:00:00,
2013-01-06 19:05:00,32.0,27.4,30.15,WNW,288,3.0,9.0,83,0.00,,---,0.01,VWS V14.01,2013-01-07 00:05:00,
2013-01-06 19:10:00,32.0,27.4,30.15,NW,316,1.0,9.0,83,0.00,,---,0.01,VWS V14.01,2013-01-07 00:10:00,
2013-01-06 19:15:00,32.0,27.4,30.16,WNW,290,7.0,9.0,83,0.00,,---,0.01,VWS V14.01,2013-01-07 00:15:00,
2013-01-06 19:20:00,31.9,27.3,30.16,North,350,5.0,9.0,83,0.00,,---,0.01,VWS V14.01,2013-01-07 00:20:00,
2013-01-06 19:26:00,32.0,27.4,30.17,WNW,294,4.0,9.0,83,0.00,,---,0.01,VWS V14.01,2013-01-07 00:26:00,
2013-01-06 19:31:00,31.9,27.3,30.17,NW,310,6.0,9.0,83,0.00,,---,0.01,VWS V14.01,2013-01-07 00:31:00,
2013-01-06 19:36:00,31.9,27.3,30.17,NW,304,2.0,9.0,83,0.00,,---,0.01,VWS V14.01,2013-01-07 00:36:00,
2013-01-06 19:41:00,31.9,27.3,30.17,WNW,293,2.0,9.0,83,0.00,,---,0.01,VWS V14.01,2013-01-07 00:41:00,
2013-01-06 19:46:00,31.8,27.5,30.17,WNW,287,1.0,9.0,84,0.00,,---,0.01,VWS V14.01,2013-01-07 00:46:00,
2013-01-06 19:51:00,31.8,27.2,30.17,NW,305,8.0,11.0,83,0.00,,---,0.01,VWS V14.01,2013-01-07 00:51:00,
2013-01-06 19:56:00,31.8,27.2,30.17,NNW,338,4.0,12.0,83,0.00,,---,0.01,VWS V14.01,2013-01-07 00:56:00,
2013-01-06 20:01:00,31.8,27.2,30.17,WNW,285,4.0,5.0,83,0.00,,---,0.01,VWS V14.01,2013-01-07 01:01:00,
2013-01-06 20:07:00,31.8,27.2,30.18,NW,323,4.0,8.0,83,0.00,,---,0.01,VWS V14.01,2013-01-07 01:07:00,
2013-01-06 20:12:00,31.8,27.2,30.18,WNW,296,3.0,8.0,83,0.00,,---,0.01,VWS V14.01,2013-01-07 01:12:00,
2013-01-06 20:17:00,31.8,27.2,30.18,NW,319,4.0,8.0,83,0.00,,---,0.01,VWS V14.01,2013-01-07 01:17:00,
2013-01-06 20:22:00,31.7,27.1,30.19,WNW,290,3.0,8.0,83,0.00,,---,0.01,VWS V14.01,2013-01-07 01:22:00,
2013-01-06 20:27:00,31.8,27.2,30.19,North,353,5.0,8.0,83,0.00,,---,0.01,VWS V14.01,2013-01-07 01:27:00,
2013-01-06 20:32:00,31.8,27.2,30.19,NW,316,3.0,8.0,83,0.00,,---,0.01,VWS V14.01,2013-01-07 01:32:00,
2013-01-06 20:37:00,31.8,26.9,30.20,NW,309,1.0,8.0,82,0.00,,---,0.01,VWS V14.01,2013-01-07 01:37:00,
2013-01-06 20:42:00,31.7,27.1,30.20,NW,307,3.0,8.0,83,0.00,,---,0.01,VWS V14.01,2013-01-07 01:42:00,
2013-01-06 20:47:00,31.7,26.8,30.20,NNW,328,3.0,8.0,82,0.00,,---,0.01,VWS V14.01,2013-01-07 01:47:00,
2013-01-06 20:53:00,31.7,26.8,30.21,NW,304,4.0,8.0,82,0.00,,---,0.01,VWS V14.01,2013-01-07 01:53:00,
2013-01-06 20:58:00,31.7,26.8,30.21,West,281,4.0,8.0,82,0.00,,---,0.01,VWS V14.01,2013-01-07 01:58:00,
2013-01-06 21:03:00,31.7,26.8,30.21,NW,311,4.0,7.0,82,0.00,,---,0.01,VWS V14.01,2013-01-07 02:03:00,
2013-01-06 21:08:00,31.7,26.8,30.21,NW,311,4.0,10.0,82,0.00,,---,0.01,VWS V14.01,2013-01-07 02:08:00,
2013-01-06 21:13:00,31.7,26.8,30.21,NNW,330,7.0,10.0,82,0.00,,---,0.01,VWS V14.01,2013-01-07 02:13:00,
2013-01-06 21:18:00,31.6,26.8,30.22,WNW,290,5.0,10.0,82,0.00,,---,0.01,VWS V14.01,2013-01-07 02:18:00,
2013-01-06 21:23:00,31.6,26.8,30.22,NNW,340,3.0,10.0,82,0.00,,---,0.01,VWS V14.01,2013-01-07 02:23:00,
2013-01-06 21:29:00,31.6,26.8,30.22,NNW,338,5.0,10.0,82,0.00,,---,0.01,VWS V14.01,2013-01-07 02:29:00,
2013-01-06 21:34:00,31.6,26.5,30.22,North,356,4.0,10.0,81,0.00,,---,0.01,VWS V14.01,2013-01-07 02:34:00,
2013-01-06 21:39:00,31.6,26.5,30.22,NW,326,4.0,10.0,81,0.00,,---,0.01,VWS V14.01,2013-01-07 02:39:00,
2013-01-06 21:44:00,31.6,26.5,30.22,North,349,3.0,10.0,81,0.00,,---,0.01,VWS V14.01,2013-01-07 02:44:00,
2013-01-06 21:49:00,31.6,26.5,30.22,NW,314,4.0,10.0,81,0.00,,---,0.01,VWS V14.01,2013-01-07 02:49:00,
2013-01-06 21:54:00,31.6,26.5,30.23,WNW,295,3.0,10.0,81,0.00,,---,0.01,VWS V14.01,2013-01-07 02:54:00,
2013-01-06 22:00:00,31.5,26.4,30.23,WNW,295,3.0,10.0,81,0.00,,---,0.01,VWS V14.01,2013-01-07 03:00:00,
2013-01-06 22:05:00,31.5,26.4,30.23,North,360,5.0,6.0,81,0.00,,---,0.01,VWS V14.01,2013-01-07 03:05:00,
2013-01-06 22:10:00,31.5,26.4,30.23,NW,326,3.0,8.0,81,0.00,,---,0.01,VWS V14.01,2013-01-07 03:10:00,
2013-01-06 22:15:00,31.5,26.4,30.23,NW,316,4.0,8.0,81,0.00,,---,0.01,VWS V14.01,2013-01-07 03:15:00,
2013-01-06 22:20:00,31.4,26.2,30.24,WNW,300,1.0,8.0,81,0.00,,---,0.01,VWS V14.01,2013-01-07 03:20:00,
2013-01-06 22:25:00,31.4,26.2,30.24,NNE,12,3.0,8.0,81,0.00,,---,0.01,VWS V14.01,2013-01-07 03:25:00,
2013-01-06 22:30:00,31.4,26.2,30.25,NW,310,4.0,8.0,81,0.00,,---,0.01,VWS V14.01,2013-01-07 03:30:00,
2013-01-06 22:35:00,31.4,26.2,30.25,NW,305,1.0,8.0,81,0.00,,---,0.01,VWS V14.01,2013-01-07 03:35:00,
2013-01-06 22:40:00,31.4,26.2,30.25,NNW,340,3.0,8.0,81,0.00,,---,0.01,VWS V14.01,2013-01-07 03:40:00,
2013-01-06 22:46:00,31.3,26.2,30.25,NNW,333,3.0,8.0,81,0.00,,---,0.01,VWS V14.01,2013-01-07 03:46:00,
2013-01-06 22:51:00,31.3,26.2,30.25,NW,322,5.0,8.0,81,0.00,,---,0.01,VWS V14.01,2013-01-07 03:51:00,
2013-01-06 22:56:00,31.3,26.2,30.25,WNW,302,3.0,8.0,81,0.00,,---,0.01,VWS V14.01,2013-01-07 03:56:00,
2013-01-06 23:01:00,31.3,26.2,30.26,NW,306,4.0,8.0,81,0.00,,---,0.01,VWS V14.01,2013-01-07 04:01:00,
2013-01-06 23:06:00,31.2,26.1,30.26,NW,321,2.0,6.0,81,0.00,,---,0.01,VWS V14.01,2013-01-07 04:06:00,
2013-01-06 23:11:00,31.2,26.1,30.26,NW,314,2.0,6.0,81,0.00,,---,0.01,VWS V14.01,2013-01-07 04:11:00,
2013-01-06 23:16:00,31.2,26.1,30.26,NW,308,5.0,6.0,81,0.00,,---,0.01,VWS V14.01,2013-01-07 04:16:00,
2013-01-06 23:21:00,31.2,26.1,30.27,NW,308,7.0,10.0,81,0.00,,---,0.01,VWS V14.01,2013-01-07 04:21:00,
2013-01-06 23:26:00,31.2,26.1,30.28,NNW,336,6.0,10.0,81,0.00,,---,0.01,VWS V14.01,2013-01-07 04:26:00,
2013-01-06 23:32:00,31.2,26.1,30.28,NW,307,3.0,10.0,81,0.00,,---,0.01,VWS V14.01,2013-01-07 04:32:00,
2013-01-06 23:37:00,31.2,26.1,30.28,WNW,294,3.0,10.0,81,0.00,,---,0.01,VWS V14.01,2013-01-07 04:37:00,
2013-01-06 23:42:00,31.2,26.1,30.28,WNW,297,3.0,10.0,81,0.00,,---,0.01,VWS V14.01,2013-01-07 04:42:00,
2013-01-06 23:47:00,31.2,26.1,30.28,WNW,300,4.0,10.0,81,0.00,,---,0.01,VWS V14.01,2013-01-07 04:47:00,
2013-01-06 23:52:00,31.2,26.1,30.28,NW,326,3.0,10.0,81,0.00,,---,0.01,VWS V14.01,2013-01-07 04:52:00,
2013-01-06 23:57:00,31.1,26.0,30.28,NW,307,2.0,10.0,81,0.00,,---,0.01,VWS V14.01,2013-01-07 04:57:00,